Time;durP1;ratioP1;P1;durP2;ratioP2;P2;SDS_P1;SDS_P2;PMS_P1;PMS_P2;Temp;Humidity;BMP_temperature;BMP_pressure;BME280_temperature;BME280_humidity;BME280_pressure;Samples;Min_cycle;Max_cycle;Signal;HPM_P1;HPM_P2
2023/06/03 00:00:44;;;;;;;;;;;;;;;-144.99;73.47;52305.41;5037212;28;19936;-69
2023/06/03 00:03:11;;;;;;;;;;;;;;;-144.99;73.63;52309.50;5039492;28;19928;-71
2023/06/03 00:05:38;;;;;;;;;;;;;;;-144.99;73.80;52313.56;5044090;28;19929;-68
2023/06/03 00:08:05;;;;;;;;;;;;;;;-144.99;73.88;52260.56;5046925;28;20359;-70
2023/06/03 00:10:33;;;;;;;;;;;;;;;-144.99;74.13;52272.81;5045767;28;19936;-70
2023/06/03 00:13:00;;;;;;;;;;;;;;;-144.99;74.16;52297.25;5044893;28;19932;-70
2023/06/03 00:15:26;;;;;;;;;;;;;;;-144.99;74.28;52321.72;5044665;28;19955;-70
2023/06/03 00:17:53;;;;;;;;;;;;;;;-144.99;74.40;52317.66;5044436;28;19939;-70
2023/06/03 00:20:20;;;;;;;;;;;;;;;-144.99;74.48;52293.19;5048502;28;19928;-67
2023/06/03 00:22:46;;;;;;;;;;;;;;;-144.99;74.73;52315.59;5046249;28;20531;-67
2023/06/03 00:25:13;;;;;;;;;;;;;;;-144.99;74.91;52311.53;5046437;28;19929;-67
2023/06/03 00:27:41;;;;;;;;;;;;;;;-144.99;75.00;52305.41;5047434;28;19924;-67
2023/06/03 00:30:08;;;;;;;;;;;;;;;-144.99;75.17;52325.81;5045234;28;20377;-67
2023/06/03 00:32:35;;;;;;;;;;;;;;;-144.99;75.35;52313.56;5049323;28;19928;-67
2023/06/03 00:35:02;;;;;;;;;;;;;;;-144.99;75.57;52260.56;5045458;28;19995;-66
2023/06/03 00:37:29;;;;;;;;;;;;;;;-144.99;75.60;52301.34;5038647;28;19935;-66
2023/06/03 00:39:55;;;;;;;;;;;;;;;-144.99;75.72;52285.03;5046626;28;19925;-66
2023/06/03 00:42:22;;;;;;;;;;;;;;;-144.99;75.73;52285.03;5048076;28;19932;-68
2023/06/03 00:44:50;;;;;;;;;;;;;;;-144.99;75.84;52305.41;5042241;28;20306;-69
2023/06/03 00:47:18;;;;;;;;;;;;;;;-144.99;75.92;52309.50;5047853;28;20464;-68
2023/06/03 00:49:45;;;;;;;;;;;;;;;-144.99;76.09;52323.75;5046769;28;19936;-67
2023/06/03 00:52:12;;;;;;;;;;;;;;;-144.99;76.32;52293.19;5043987;28;20321;-68
2023/06/03 00:54:39;;;;;;;;;;;;;;;-144.99;76.27;52307.47;5046423;28;19951;-65
2023/06/03 00:57:06;;;;;;;;;;;;;;;-144.99;76.42;52256.50;5046540;28;20019;-68
2023/06/03 00:59:33;;;;;;;;;;;;;;;-144.99;76.50;52276.88;5044409;28;19929;-71
2023/06/03 01:02:01;;;;;;;;;;;;;;;-144.99;76.58;52301.34;5043422;28;20936;-70
2023/06/03 01:04:29;;;;;;;;;;;;;;;-144.99;76.67;52317.66;5042658;28;19951;-69
2023/06/03 01:07:11;;;;;;;;;;;;;;;-144.99;76.72;52301.34;5047016;28;20325;-69
2023/06/03 01:09:44;;;;;;;;;;;;;;;-144.99;76.77;52313.56;5047048;28;19932;-69
2023/06/03 01:12:16;;;;;;;;;;;;;;;-144.99;76.89;52305.41;5044976;28;20417;-70
2023/06/03 01:14:45;;;;;;;;;;;;;;;-144.99;77.12;52309.50;5043382;28;21091;-67
2023/06/03 01:17:15;;;;;;;;;;;;;;;-144.99;77.44;52289.13;5042113;28;19967;-72
2023/06/03 01:19:48;;;;;;;;;;;;;;;-144.99;77.73;52289.13;5039939;28;19929;-73
2023/06/03 01:22:15;;;;;;;;;;;;;;;-144.99;77.86;52317.66;5045778;28;20293;-72
2023/06/03 01:24:43;;;;;;;;;;;;;;;-144.99;78.09;52309.50;5043347;28;19929;-76
2023/06/03 01:27:10;;;;;;;;;;;;;;;-144.99;78.00;52297.25;5045938;28;19999;-70
2023/06/03 01:29:37;;;;;;;;;;;;;;;-144.99;78.18;52276.88;5039542;28;19994;-72
2023/06/03 01:32:04;;;;;;;;;;;;;;;-144.99;78.44;52317.66;5044526;28;19925;-71
2023/06/03 01:34:32;;;;;;;;;;;;;;;-144.99;78.48;52301.34;5046869;28;20271;-71
2023/06/03 01:36:59;;;;;;;;;;;;;;;-144.99;78.49;52309.50;5047580;28;19925;-72
2023/06/03 01:39:26;;;;;;;;;;;;;;;-144.99;78.62;52301.34;5038940;28;20382;-72
2023/06/03 01:41:54;;;;;;;;;;;;;;;-144.99;78.77;52297.25;5045229;28;19976;-69
2023/06/03 01:44:21;;;;;;;;;;;;;;;-144.99;78.78;52295.22;5042600;28;20404;-70
2023/06/03 01:46:47;;;;;;;;;;;;;;;-144.99;79.03;52305.41;5046431;28;19929;-69
2023/06/03 01:49:15;;;;;;;;;;;;;;;-144.99;78.96;52272.81;5045676;28;20423;-70
2023/06/03 01:51:42;;;;;;;;;;;;;;;-144.99;79.23;52333.94;5040415;28;19928;-66
2023/06/03 01:54:09;;;;;;;;;;;;;;;-144.99;79.40;52301.34;5046371;28;19938;-66
2023/06/03 01:56:36;;;;;;;;;;;;;;;-144.99;79.54;52325.81;5048358;28;19928;-66
2023/06/03 01:59:04;;;;;;;;;;;;;;;-144.99;79.76;52297.25;5042005;28;19925;-66
2023/06/03 02:01:31;;;;;;;;;;;;;;;-144.99;79.89;52313.56;5042489;28;20376;-67
2023/06/03 02:03:57;;;;;;;;;;;;;;;-144.99;80.12;52293.19;5044394;28;19925;-67
2023/06/03 02:06:24;;;;;;;;;;;;;;;-144.99;80.66;52297.25;5045291;28;19929;-68
2023/06/03 02:08:50;;;;;;;;;;;;;;;-144.99;80.73;52295.22;5043924;28;19929;-68
2023/06/03 02:11:17;;;;;;;;;;;;;;;-144.99;81.22;52325.81;5045292;28;19932;-67
2023/06/03 02:13:44;;;;;;;;;;;;;;;-144.99;81.25;52297.25;5044453;28;19951;-65
2023/06/03 02:16:13;;;;;;;;;;;;;;;-144.99;81.30;52311.53;5041405;28;19980;-69
2023/06/03 02:18:40;;;;;;;;;;;;;;;-144.99;81.43;52325.81;5043199;28;20721;-70
2023/06/03 02:21:07;;;;;;;;;;;;;;;-144.99;81.75;52309.50;5043466;28;19939;-70
2023/06/03 02:23:33;;;;;;;;;;;;;;;-144.99;81.69;52297.25;5044728;28;19928;-70
2023/06/03 02:26:01;;;;;;;;;;;;;;;-144.99;81.85;52276.88;5045517;28;19932;-70
2023/06/03 02:28:29;;;;;;;;;;;;;;;-144.99;82.06;52280.97;5039467;28;20298;-69
2023/06/03 02:30:56;;;;;;;;;;;;;;;-144.99;81.77;52289.13;5043107;28;20040;-69
2023/06/03 02:33:24;;;;;;;;;;;;;;;-144.99;81.78;52280.97;5045421;28;20490;-69
2023/06/03 02:35:50;;;;;;;;;;;;;;;-144.99;81.97;52268.72;5045623;28;19929;-69
2023/06/03 02:38:20;;;;;;;;;;;;;;;-144.99;82.07;52297.25;5044147;28;19936;-68
2023/06/03 02:40:46;;;;;;;;;;;;;;;-144.99;82.04;52299.31;5042768;28;19943;-69
2023/06/03 02:43:14;;;;;;;;;;;;;;;-144.99;82.10;52278.91;5042842;28;19928;-69
2023/06/03 02:45:41;;;;;;;;;;;;;;;-144.99;82.28;52285.03;5045381;28;19956;-65
2023/06/03 02:48:07;;;;;;;;;;;;;;;-144.99;82.40;52307.47;5044289;28;20460;-65
2023/06/03 02:50:35;;;;;;;;;;;;;;;-144.99;82.47;52346.19;5043211;28;19956;-65
2023/06/03 02:53:02;;;;;;;;;;;;;;;-144.99;82.77;52350.25;5044811;28;19955;-64
2023/06/03 02:55:33;;;;;;;;;;;;;;;-144.99;82.95;52289.13;5036570;28;19971;-65
2023/06/03 02:57:59;;;;;;;;;;;;;;;-144.99;83.21;52321.72;5043144;28;19932;-64
2023/06/03 03:00:26;;;;;;;;;;;;;;;-144.99;83.31;52313.56;5042329;28;19943;-70
2023/06/03 03:02:53;;;;;;;;;;;;;;;-144.99;83.54;52309.50;5044540;28;19932;-70
2023/06/03 03:05:20;;;;;;;;;;;;;;;-144.99;83.42;52329.88;5044851;28;19929;-71
2023/06/03 03:07:48;;;;;;;;;;;;;;;-144.99;83.47;52278.91;5046207;28;19933;-71
2023/06/03 03:10:15;;;;;;;;;;;;;;;-144.99;83.55;52325.81;5044736;28;20032;-73
2023/06/03 03:12:41;;;;;;;;;;;;;;;-144.99;83.62;52285.03;5040742;28;19929;-69
2023/06/03 03:15:09;;;;;;;;;;;;;;;-144.99;83.79;52309.50;5043491;28;19940;-71
2023/06/03 03:17:35;;;;;;;;;;;;;;;-144.99;83.73;52297.25;5041553;28;20389;-71
2023/06/03 03:20:02;;;;;;;;;;;;;;;-144.99;83.65;52297.25;5045003;28;19932;-67
2023/06/03 03:22:30;;;;;;;;;;;;;;;-144.99;83.66;52299.31;5038950;28;20254;-66
2023/06/03 03:24:58;;;;;;;;;;;;;;;-144.99;83.73;52309.50;5044386;28;19983;-69
2023/06/03 03:27:25;;;;;;;;;;;;;;;-144.99;83.73;52301.34;5043241;28;19976;-69
2023/06/03 03:29:52;;;;;;;;;;;;;;;-144.99;83.84;52325.81;5042935;28;19932;-71
2023/06/03 03:32:19;;;;;;;;;;;;;;;-144.99;83.68;52309.50;5041780;28;19933;-67
2023/06/03 03:34:49;;;;;;;;;;;;;;;-144.99;83.63;52278.91;5045321;28;20311;-67
2023/06/03 03:37:16;;;;;;;;;;;;;;;-144.99;83.55;52268.72;5045415;28;19928;-68
2023/06/03 03:39:42;;;;;;;;;;;;;;;-144.99;83.55;52297.25;5044680;28;19925;-68
2023/06/03 03:42:11;;;;;;;;;;;;;;;-144.99;83.69;52285.03;5044839;28;19928;-67
2023/06/03 03:44:37;;;;;;;;;;;;;;;-144.99;83.90;52289.13;5044258;28;20313;-70
2023/06/03 03:47:04;;;;;;;;;;;;;;;-144.99;83.89;52293.19;5047607;28;19935;-67
2023/06/03 03:49:32;;;;;;;;;;;;;;;-144.99;83.75;52301.34;5047461;28;19924;-70
2023/06/03 03:52:03;;;;;;;;;;;;;;;-144.99;83.72;52272.81;5049162;28;19968;-68
2023/06/03 03:54:30;;;;;;;;;;;;;;;-144.99;83.74;52280.97;5044730;28;19931;-68
2023/06/03 03:56:57;;;;;;;;;;;;;;;-144.99;83.89;52276.88;5050596;28;19933;-68
2023/06/03 03:59:26;;;;;;;;;;;;;;;-144.99;83.81;52297.25;5049534;28;19939;-68
2023/06/03 04:01:53;;;;;;;;;;;;;;;-144.99;83.82;52276.88;5051661;28;19948;-68
2023/06/03 04:04:35;;;;;;;;;;;;;;;-144.99;83.66;52303.38;5050390;28;19931;-68
2023/06/03 04:07:02;;;;;;;;;;;;;;;-144.99;83.51;52262.63;5048160;28;19951;-70
2023/06/03 04:09:29;;;;;;;;;;;;;;;-144.99;83.54;52309.50;5048317;28;19941;-70
2023/06/03 04:11:55;;;;;;;;;;;;;;;-144.99;83.56;52313.56;5048563;28;19928;-67
2023/06/03 04:14:28;;;;;;;;;;;;;;;-144.99;83.39;52303.38;5046700;28;19951;-71
2023/06/03 04:16:57;;;;;;;;;;;;;;;-144.99;83.35;52289.13;5045251;28;19956;-71
2023/06/03 04:19:30;;;;;;;;;;;;;;;-144.99;83.33;52280.97;5042200;28;20356;-71
2023/06/03 04:21:57;;;;;;;;;;;;;;;-144.99;83.08;52321.72;5046246;28;19995;-70
2023/06/03 04:24:24;;;;;;;;;;;;;;;-144.99;83.01;52295.22;5047357;28;20264;-70
2023/06/03 04:26:51;;;;;;;;;;;;;;;-144.99;82.94;52238.16;5047903;28;19933;-68
2023/06/03 04:29:18;;;;;;;;;;;;;;;-144.99;82.86;52291.16;5043640;28;20027;-70
2023/06/03 04:31:44;;;;;;;;;;;;;;;-144.99;82.73;52325.81;5047599;28;19925;-69
2023/06/03 04:34:12;;;;;;;;;;;;;;;-144.99;82.53;52268.72;5047457;28;19929;-69
2023/06/03 04:36:39;;;;;;;;;;;;;;;-144.99;82.38;52252.44;5047950;28;20302;-71
2023/06/03 04:39:06;;;;;;;;;;;;;;;-144.99;82.24;52276.88;5045304;28;19941;-71
2023/06/03 04:41:33;;;;;;;;;;;;;;;-144.99;82.00;52280.97;5045986;28;19925;-70
2023/06/03 04:44:01;;;;;;;;;;;;;;;-144.99;81.77;52289.13;5046404;28;19924;-70
2023/06/03 04:46:29;;;;;;;;;;;;;;;-144.99;81.77;52297.25;5047576;28;19935;-70
2023/06/03 04:48:57;;;;;;;;;;;;;;;-144.99;81.58;52272.81;5045895;28;19931;-70
2023/06/03 04:51:27;;;;;;;;;;;;;;;-144.99;81.53;52272.81;5047746;28;19941;-70
2023/06/03 04:53:54;;;;;;;;;;;;;;;-144.99;81.40;52293.19;5047677;28;19928;-68
2023/06/03 04:56:21;;;;;;;;;;;;;;;-144.99;81.19;52276.88;5045343;28;19952;-67
2023/06/03 04:58:48;;;;;;;;;;;;;;;-144.99;80.99;52248.34;5043972;28;19944;-67
2023/06/03 05:01:17;;;;;;;;;;;;;;;-144.99;81.03;52293.19;5042035;28;20051;-67
2023/06/03 05:03:44;;;;;;;;;;;;;;;-144.99;80.94;52317.66;5047625;28;19928;-68
2023/06/03 05:06:11;;;;;;;;;;;;;;;-144.99;80.86;52240.19;5047236;28;19937;-67
2023/06/03 05:08:40;;;;;;;;;;;;;;;-144.99;80.53;52248.34;5043305;28;19929;-69
2023/06/03 05:11:07;;;;;;;;;;;;;;;-144.99;80.38;52219.81;5047228;28;20043;-70
2023/06/03 05:13:34;;;;;;;;;;;;;;;-144.99;80.09;52280.97;5045834;28;19929;-70
2023/06/03 05:16:00;;;;;;;;;;;;;;;-144.99;79.87;52230.00;5044619;28;20310;-71
2023/06/03 05:18:27;;;;;;;;;;;;;;;-144.99;79.75;52238.16;5043091;28;19933;-70
2023/06/03 05:20:54;;;;;;;;;;;;;;;-144.99;79.55;52236.13;5047449;28;19929;-72
2023/06/03 05:23:20;;;;;;;;;;;;;;;-144.99;79.17;52219.81;5046794;28;20308;-72
2023/06/03 05:25:48;;;;;;;;;;;;;;;-144.99;78.84;52276.88;5047481;28;20186;-71
2023/06/03 05:28:15;;;;;;;;;;;;;;;-144.99;78.54;52283.00;5042321;28;19936;-70
2023/06/03 05:30:41;;;;;;;;;;;;;;;-144.99;78.26;52199.44;5045747;28;19929;-73
2023/06/03 05:33:08;;;;;;;;;;;;;;;-144.99;78.13;52256.50;5046771;28;19929;-70
2023/06/03 05:35:35;;;;;;;;;;;;;;;-144.99;77.80;52221.84;5047350;28;20295;-70
2023/06/03 05:38:01;;;;;;;;;;;;;;;-144.99;77.56;52215.75;5040106;28;20034;-73
2023/06/03 05:40:28;;;;;;;;;;;;;;;-144.99;77.42;52227.97;5045707;28;19925;-74
2023/06/03 05:42:56;;;;;;;;;;;;;;;-144.99;76.50;52256.50;5046797;28;19924;-73
2023/06/03 05:45:23;;;;;;;;;;;;;;;-144.99;76.41;52240.19;5045344;28;20209;-68
2023/06/03 05:47:49;;;;;;;;;;;;;;;-144.99;76.20;52207.59;5044326;28;19928;-69
2023/06/03 05:50:16;;;;;;;;;;;;;;;-144.99;75.57;52240.19;5045724;28;20400;-68
2023/06/03 05:52:43;;;;;;;;;;;;;;;-144.99;75.49;52252.44;5046672;28;20303;-67
2023/06/03 05:55:10;;;;;;;;;;;;;;;-144.99;74.73;52223.88;5046694;28;19929;-69
2023/06/03 05:57:37;;;;;;;;;;;;;;;-144.99;74.92;52211.66;5043938;28;20373;-69
2023/06/03 06:00:05;;;;;;;;;;;;;;;-144.99;74.28;52232.03;5045175;28;20282;-68
2023/06/03 06:02:32;;;;;;;;;;;;;;;-144.99;73.86;52195.34;5042967;28;19935;-71
2023/06/03 06:04:58;;;;;;;;;;;;;;;-144.99;73.82;52181.09;5046557;28;19939;-70
2023/06/03 06:07:26;;;;;;;;;;;;;;;-144.99;73.56;52227.97;5042086;28;19925;-71
2023/06/03 06:09:52;;;;;;;;;;;;;;;-144.99;73.71;52227.97;5043186;28;20445;-69
2023/06/03 06:12:19;;;;;;;;;;;;;;;-144.99;73.18;52209.63;5046467;28;19940;-70
2023/06/03 06:14:45;;;;;;;;;;;;;;;-144.99;73.39;52244.28;5044747;28;19992;-70
2023/06/03 06:17:16;;;;;;;;;;;;;;;-144.99;73.50;52211.66;5042671;28;19925;-73
2023/06/03 06:19:42;;;;;;;;;;;;;;;-144.99;73.22;52199.44;5043705;28;20006;-70
2023/06/03 06:22:09;;;;;;;;;;;;;;;-144.99;73.54;52215.75;5046210;28;19925;-75
2023/06/03 06:24:37;;;;;;;;;;;;;;;-144.99;73.91;52227.97;5046931;28;20297;-72
2023/06/03 06:27:05;;;;;;;;;;;;;;;-144.99;73.33;52187.19;5048364;28;19929;-75
2023/06/03 06:29:31;;;;;;;;;;;;;;;-144.99;71.26;52213.69;5033588;28;19929;-74
2023/06/03 06:31:59;;;;;;;;;;;;;;;-144.99;70.28;52207.59;5049017;28;20546;-72
2023/06/03 06:34:29;;;;;;;;;;;;;;;-144.99;70.26;52177.00;5051583;28;20012;-72
2023/06/03 06:36:57;;;;;;;;;;;;;;;-144.99;69.69;52223.88;5050397;28;19925;-72
2023/06/03 06:39:42;;;;;;;;;;;;;;;-144.99;69.70;52191.28;5043156;28;19944;-72
2023/06/03 06:42:11;;;;;;;;;;;;;;;-144.99;69.36;52211.66;5045917;28;20413;-72
2023/06/03 06:44:44;;;;;;;;;;;;;;;-144.99;68.31;52203.50;5045045;28;20023;-73
2023/06/03 06:47:10;;;;;;;;;;;;;;;-144.99;68.15;52170.91;5038879;28;19936;-74
2023/06/03 06:49:39;;;;;;;;;;;;;;;-144.99;68.08;52189.25;5045949;28;19948;-71
2023/06/03 06:52:06;;;;;;;;;;;;;;;-144.99;68.11;52156.63;5045997;28;19925;-71
2023/06/03 06:54:33;;;;;;;;;;;;;;;-144.99;68.02;52179.06;5045534;28;20354;-70
2023/06/03 06:57:06;;;;;;;;;;;;;;;-144.99;67.79;52154.59;5055229;28;19929;-71
2023/06/03 06:59:32;;;;;;;;;;;;;;;-144.99;67.16;52207.59;5051008;28;19933;-72
2023/06/03 07:01:59;;;;;;;;;;;;;;;-144.99;66.49;52183.13;5042566;28;19939;-71
2023/06/03 07:04:26;;;;;;;;;;;;;;;-144.99;66.06;52187.19;5055704;28;20032;-69
2023/06/03 07:06:54;;;;;;;;;;;;;;;-144.99;66.15;52199.44;5050038;28;19933;-67
2023/06/03 07:09:20;;;;;;;;;;;;;;;-144.99;65.81;52232.03;5057574;28;19925;-69
2023/06/03 07:11:47;;;;;;;;;;;;;;;-144.99;64.99;52207.59;5053858;28;20137;-69
2023/06/03 07:14:14;;;;;;;;;;;;;;;-144.99;64.18;52170.91;5056412;28;19929;-70
2023/06/03 07:16:42;;;;;;;;;;;;;;;-144.99;64.69;52183.13;5056715;28;19956;-68
2023/06/03 07:19:08;;;;;;;;;;;;;;;-144.99;64.69;52170.91;5050203;28;19926;-68
2023/06/03 07:21:35;;;;;;;;;;;;;;;-144.99;64.87;52187.19;5060813;28;19925;-70
2023/06/03 07:24:03;;;;;;;;;;;;;;;-144.99;64.37;52185.16;5059765;28;19928;-69
2023/06/03 07:26:31;;;;;;;;;;;;;;;-144.99;64.98;52174.97;5060628;28;20453;-70
2023/06/03 07:28:58;;;;;;;;;;;;;;;-144.99;64.80;52183.13;5046403;28;19925;-69
2023/06/03 07:31:25;;;;;;;;;;;;;;;-144.99;63.60;52158.66;5054815;28;19925;-69
2023/06/03 07:33:52;;;;;;;;;;;;;;;-144.99;63.61;52191.28;5055090;28;19964;-68
2023/06/03 07:36:20;;;;;;;;;;;;;;;-144.99;62.69;52217.78;5050806;28;19935;-68
2023/06/03 07:39:02;;;;;;;;;;;;;;;-144.99;62.84;52174.97;5041321;28;20295;-69
2023/06/03 07:41:37;;;;;;;;;;;;;;;-144.99;63.51;52146.44;5042272;28;19940;-68
2023/06/03 07:44:08;;;;;;;;;;;;;;;-144.99;62.91;52164.78;5034095;28;20273;-70
2023/06/03 07:46:42;;;;;;;;;;;;;;;-144.99;62.15;52219.81;5043565;28;19928;-69
2023/06/03 07:49:09;;;;;;;;;;;;;;;-144.99;62.49;52138.28;5044519;28;19937;-69
2023/06/03 07:51:36;;;;;;;;;;;;;;;-144.99;63.11;52174.97;5047462;28;20409;-70
2023/06/03 07:54:04;;;;;;;;;;;;;;;-144.99;62.98;52170.91;5043441;28;20587;-73
2023/06/03 07:56:31;;;;;;;;;;;;;;;-144.99;62.32;52191.28;5047163;28;19936;-70
2023/06/03 07:59:00;;;;;;;;;;;;;;;-144.99;62.34;52150.53;5038733;28;19936;-69
2023/06/03 08:01:27;;;;;;;;;;;;;;;-144.99;61.89;52142.38;5048878;28;19990;-68
2023/06/03 08:03:53;;;;;;;;;;;;;;;-144.99;61.47;52166.81;5044948;28;20014;-70
2023/06/03 08:06:24;;;;;;;;;;;;;;;-144.99;61.49;52164.78;5047659;28;19980;-69
2023/06/03 08:08:52;;;;;;;;;;;;;;;-144.99;61.11;52126.06;5044361;28;19925;-69
2023/06/03 08:11:19;;;;;;;;;;;;;;;-144.99;60.95;52146.44;5046299;28;19932;-67
2023/06/03 08:13:46;;;;;;;;;;;;;;;-144.99;61.09;52146.44;5044397;28;20278;-68
2023/06/03 08:16:17;;;;;;;;;;;;;;;-144.99;61.89;52158.66;5042839;28;19936;-68
2023/06/03 08:18:44;;;;;;;;;;;;;;;-144.99;61.88;52162.75;5043843;28;19924;-68
2023/06/03 08:21:11;;;;;;;;;;;;;;;-144.99;61.99;52134.22;5043075;28;19936;-68
2023/06/03 08:23:38;;;;;;;;;;;;;;;-144.99;61.94;52146.44;5045735;28;20012;-68
2023/06/03 08:26:05;;;;;;;;;;;;;;;-144.99;61.93;52158.66;5045997;28;19940;-69
2023/06/03 08:28:31;;;;;;;;;;;;;;;-144.99;62.39;52174.97;5040183;28;19929;-70
2023/06/03 08:30:58;;;;;;;;;;;;;;;-144.99;61.94;52158.66;5044810;28;19929;-68
2023/06/03 08:33:26;;;;;;;;;;;;;;;-144.99;62.09;52195.34;5045622;28;20842;-66
2023/06/03 08:35:53;;;;;;;;;;;;;;;-144.99;61.36;52179.06;5046125;28;20102;-68
2023/06/03 08:38:20;;;;;;;;;;;;;;;-144.99;60.59;52166.81;5041859;28;20418;-67
2023/06/03 08:40:47;;;;;;;;;;;;;;;-144.99;60.69;52130.13;5038655;28;19937;-68
2023/06/03 08:43:14;;;;;;;;;;;;;;;-144.99;60.61;52146.44;5041673;28;19936;-69
2023/06/03 08:45:46;;;;;;;;;;;;;;;-144.99;60.62;52105.69;4692708;28;10000557;-70
2023/06/03 08:48:17;;;;;;;;;;;;;;;-144.99;60.52;52109.75;5041656;28;19933;-69
2023/06/03 08:50:48;;;;;;;;;;;;;;;-144.99;60.21;52132.19;5042539;28;19939;-69
2023/06/03 08:53:15;;;;;;;;;;;;;;;-144.99;60.03;52113.84;5041688;28;19933;-69
2023/06/03 08:55:42;;;;;;;;;;;;;;;-144.99;59.22;52138.28;5037731;28;20404;-68
2023/06/03 08:58:10;;;;;;;;;;;;;;;-144.99;58.79;52115.88;5039529;28;20012;-71
2023/06/03 09:00:38;;;;;;;;;;;;;;;-144.99;59.67;52119.94;5037590;28;20031;-69
2023/06/03 09:03:05;;;;;;;;;;;;;;;-144.99;59.64;52117.91;5041121;28;19932;-67
2023/06/03 09:05:33;;;;;;;;;;;;;;;-144.99;59.64;52113.84;5043261;28;19999;-62
2023/06/03 09:08:02;;;;;;;;;;;;;;;-144.99;60.11;52101.59;5046965;28;20422;-64
2023/06/03 09:10:29;;;;;;;;;;;;;;;-144.99;59.92;52126.06;5039614;28;19976;-62
2023/06/03 09:12:58;;;;;;;;;;;;;;;-144.99;59.74;52158.66;5039725;28;19929;-63
2023/06/03 09:15:25;;;;;;;;;;;;;;;-144.99;59.10;52077.16;5043625;28;19932;-62
2023/06/03 09:17:52;;;;;;;;;;;;;;;-144.99;59.28;52105.69;5040518;28;19925;-63
2023/06/03 09:20:18;;;;;;;;;;;;;;;-144.99;59.44;52138.28;5043338;28;20348;-63
2023/06/03 09:22:46;;;;;;;;;;;;;;;-144.99;59.01;52085.31;5040666;28;19929;-63
2023/06/03 09:25:15;;;;;;;;;;;;;;;-144.99;58.88;52111.78;5043256;28;19932;-63
2023/06/03 09:27:42;;;;;;;;;;;;;;;-144.99;58.58;52101.59;5043853;28;20282;-62
2023/06/03 09:30:09;;;;;;;;;;;;;;;-144.99;57.90;52097.53;5042636;28;19924;-62
2023/06/03 09:32:36;;;;;;;;;;;;;;;-144.99;58.56;52113.84;5040511;28;20028;-63
2023/06/03 09:35:04;;;;;;;;;;;;;;;-144.99;57.67;52107.72;5043701;28;20393;-64
2023/06/03 09:37:31;;;;;;;;;;;;;;;-144.99;57.55;52134.22;5051707;28;19956;-64
2023/06/03 09:39:58;;;;;;;;;;;;;;;-144.99;57.89;52158.66;5041914;28;20280;-64
2023/06/03 09:42:40;;;;;;;;;;;;;;;-144.99;58.99;52166.81;5038338;28;19940;-64
2023/06/03 09:45:07;;;;;;;;;;;;;;;-144.99;58.79;52158.66;5042656;28;19940;-64
2023/06/03 09:47:34;;;;;;;;;;;;;;;-144.99;58.72;52113.84;5043872;28;19928;-64
2023/06/03 09:50:02;;;;;;;;;;;;;;;-144.99;59.12;52154.59;5043484;28;20278;-64
2023/06/03 09:52:33;;;;;;;;;;;;;;;-144.99;58.64;52089.38;5044080;28;19929;-65
2023/06/03 09:55:03;;;;;;;;;;;;;;;-144.99;58.53;52158.66;5039316;28;19928;-65
2023/06/03 09:57:31;;;;;;;;;;;;;;;-144.99;58.20;52117.91;5043807;28;19929;-64
2023/06/03 10:00:07;;;;;;;;;;;;;;;-144.99;58.48;52113.84;5041549;28;19998;-65
2023/06/03 10:02:33;;;;;;;;;;;;;;;-144.99;58.46;52146.44;5037413;28;19972;-64
2023/06/03 10:05:01;;;;;;;;;;;;;;;-144.99;58.77;52150.53;5041897;28;20002;-64
2023/06/03 10:07:28;;;;;;;;;;;;;;;-144.99;58.91;52130.13;5045098;28;19933;-65
2023/06/03 10:10:04;;;;;;;;;;;;;;;-144.99;59.15;52142.38;5046870;28;19948;-65
2023/06/03 10:12:33;;;;;;;;;;;;;;;-144.99;58.39;52093.44;5038869;28;20449;-64
2023/06/03 10:14:59;;;;;;;;;;;;;;;-144.99;57.80;52064.91;5036478;28;19929;-65
2023/06/03 10:17:26;;;;;;;;;;;;;;;-144.99;57.35;52081.22;5040072;28;19944;-65
2023/06/03 10:19:53;;;;;;;;;;;;;;;-144.99;57.26;52036.38;5038548;28;20366;-64
2023/06/03 10:22:20;;;;;;;;;;;;;;;-144.99;56.81;52020.09;5042216;28;19928;-65
2023/06/03 10:24:48;;;;;;;;;;;;;;;-144.99;55.96;52028.22;5042439;28;19932;-64
2023/06/03 10:27:15;;;;;;;;;;;;;;;-144.99;56.62;52032.31;5042996;28;19935;-65
2023/06/03 10:29:43;;;;;;;;;;;;;;;-144.99;56.51;52056.78;5041163;28;20233;-64
2023/06/03 10:32:12;;;;;;;;;;;;;;;-144.99;57.27;52044.53;5042253;28;19935;-65
2023/06/03 10:34:41;;;;;;;;;;;;;;;-144.99;56.74;52020.09;5042678;28;20303;-65
2023/06/03 10:37:09;;;;;;;;;;;;;;;-144.99;56.08;52011.94;5042800;28;19925;-64
2023/06/03 10:39:35;;;;;;;;;;;;;;;-144.99;56.00;52020.09;5037783;28;19940;-65
2023/06/03 10:42:03;;;;;;;;;;;;;;;-144.99;55.24;52048.63;5039286;28;19929;-64
2023/06/03 10:44:30;;;;;;;;;;;;;;;-144.99;55.89;52016.00;5034639;28;19959;-65
2023/06/03 10:47:00;;;;;;;;;;;;;;;-144.99;54.91;52007.84;5043110;28;20348;-64
2023/06/03 10:49:29;;;;;;;;;;;;;;;-144.99;55.01;51983.41;5041824;28;20446;-64
2023/06/03 10:52:14;;;;;;;;;;;;;;;-144.99;54.16;52064.91;5042160;28;19928;-64
2023/06/03 10:54:48;;;;;;;;;;;;;;;-144.99;54.36;51975.25;5035666;28;19935;-65
2023/06/03 10:57:17;;;;;;;;;;;;;;;-144.99;54.41;52024.16;5039566;28;19935;-65
2023/06/03 10:59:45;;;;;;;;;;;;;;;-144.99;54.94;52024.16;5040019;28;19935;-65
2023/06/03 11:02:13;;;;;;;;;;;;;;;-144.99;54.85;51983.41;5042265;28;20033;-64
2023/06/03 11:04:41;;;;;;;;;;;;;;;-144.99;54.78;51999.69;5040716;28;20341;-64
2023/06/03 11:07:28;;;;;;;;;;;;;;;-144.99;54.79;51979.31;5041212;28;19944;-64
2023/06/03 11:09:55;;;;;;;;;;;;;;;-144.99;54.65;51960.97;5042276;28;19928;-64
2023/06/03 11:12:21;;;;;;;;;;;;;;;-144.99;54.12;51971.16;5042113;28;20445;-64
2023/06/03 11:14:52;;;;;;;;;;;;;;;-144.99;54.01;51975.25;4687898;28;10000390;-65
2023/06/03 11:17:21;;;;;;;;;;;;;;;-144.99;54.11;51963.03;5036764;28;19929;-64
2023/06/03 11:19:49;;;;;;;;;;;;;;;-144.99;53.66;51979.31;5037977;28;19936;-65
2023/06/03 11:22:30;;;;;;;;;;;;;;;-144.99;53.34;51971.16;5040555;28;19929;-65
2023/06/03 11:24:58;;;;;;;;;;;;;;;-144.99;53.94;52028.22;5040651;28;19929;-58
2023/06/03 11:27:25;;;;;;;;;;;;;;;-144.99;53.35;52036.38;5040855;28;19936;-63
2023/06/03 11:29:56;;;;;;;;;;;;;;;-144.99;53.68;51983.41;5037338;28;19940;-64
2023/06/03 11:32:25;;;;;;;;;;;;;;;-144.99;53.27;51973.22;5041087;28;20047;-66
2023/06/03 11:34:52;;;;;;;;;;;;;;;-144.99;53.02;51963.03;5041432;28;19940;-66
2023/06/03 11:37:19;;;;;;;;;;;;;;;-144.99;52.90;51987.47;5041316;28;20023;-68
2023/06/03 11:40:04;;;;;;;;;;;;;;;-144.99;52.91;52016.00;5037812;28;19929;-69
2023/06/03 11:42:30;;;;;;;;;;;;;;;-144.99;53.60;52024.16;5040411;28;19996;-68
2023/06/03 11:45:18;;;;;;;;;;;;;;;-144.99;54.02;52036.38;5041690;28;20095;-68
2023/06/03 11:47:52;;;;;;;;;;;;;;;-144.99;53.68;52022.13;5035150;28;19929;-67
2023/06/03 11:50:19;;;;;;;;;;;;;;;-144.99;53.82;51987.47;5037772;28;19994;-68
2023/06/03 11:52:46;;;;;;;;;;;;;;;-144.99;54.03;52052.69;5036991;28;19937;-68
2023/06/03 11:55:22;;;;;;;;;;;;;;;-144.99;54.07;51999.69;5027589;28;20087;-68
2023/06/03 11:57:49;;;;;;;;;;;;;;;-144.99;53.94;51991.56;5036286;28;19928;-69
2023/06/03 12:00:17;;;;;;;;;;;;;;;-144.99;53.70;51977.28;5032984;28;20059;-70
2023/06/03 12:02:45;;;;;;;;;;;;;;;-144.99;53.61;51997.66;5038673;28;20686;-68
2023/06/03 12:05:15;;;;;;;;;;;;;;;-144.99;53.91;51987.47;5034017;28;19932;-69
2023/06/03 12:07:43;;;;;;;;;;;;;;;-144.99;53.98;52028.22;5041725;28;19928;-71
2023/06/03 12:10:11;;;;;;;;;;;;;;;-144.99;53.95;52001.75;5042057;28;19932;-68
2023/06/03 12:12:49;;;;;;;;;;;;;;;-144.99;53.89;52020.09;5042554;28;19933;-69
2023/06/03 12:15:16;;;;;;;;;;;;;;;-144.99;54.27;52020.09;5040024;28;20364;-68
2023/06/03 12:17:42;;;;;;;;;;;;;;;-144.99;54.12;52036.38;5042286;28;20027;-69
2023/06/03 12:20:11;;;;;;;;;;;;;;;-144.99;54.13;52044.53;5042924;28;20182;-68
2023/06/03 12:22:39;;;;;;;;;;;;;;;-144.99;54.12;52073.06;5042605;28;19993;-67
2023/06/03 12:25:06;;;;;;;;;;;;;;;-144.99;53.77;52036.38;5040435;28;20294;-69
2023/06/03 12:27:34;;;;;;;;;;;;;;;-144.99;53.58;51987.47;5040324;28;20024;-68
2023/06/03 12:30:01;;;;;;;;;;;;;;;-144.99;54.02;52044.53;5040947;28;20015;-68